createdAt,value
2022-09-10T00:01:51.208Z,99781.44
2022-09-10T00:04:17.998Z,99787.00
2022-09-10T00:06:45.082Z,99782.31
2022-09-10T00:09:12.563Z,99778.44
2022-09-10T00:11:41.196Z,99785.84
2022-09-10T00:14:10.282Z,99781.38
2022-09-10T00:16:37.131Z,99786.91
2022-09-10T00:19:04.017Z,99788.72
2022-09-10T00:21:31.157Z,99793.44
2022-09-10T00:23:58.052Z,99789.47
2022-09-10T00:26:31.764Z,99785.25
2022-09-10T00:29:01.739Z,99782.13
2022-09-10T00:31:30.170Z,99781.84
2022-09-10T00:33:57.931Z,99779.72
2022-09-10T00:36:29.423Z,99782.69
2022-09-10T00:38:58.319Z,99776.34
2022-09-10T00:41:26.024Z,99776.59
2022-09-10T00:43:53.285Z,99780.78
2022-09-10T00:46:25.377Z,99779.16
2022-09-10T00:48:54.189Z,99775.22
2022-09-10T00:51:21.096Z,99770.22
2022-09-10T00:53:48.125Z,99758.94
2022-09-10T00:56:15.155Z,99762.63
2022-09-10T00:58:43.224Z,99759.72
2022-09-10T01:01:10.215Z,99758.66
2022-09-10T01:03:37.471Z,99754.22
2022-09-10T01:06:05.370Z,99755.28
2022-09-10T01:08:32.145Z,99755.56
2022-09-10T01:11:17.251Z,99757.94
2022-09-10T01:13:52.748Z,99756.06
2022-09-10T01:16:20.012Z,99747.13
2022-09-10T01:18:46.795Z,99751.06
2022-09-10T01:21:19.935Z,99747.16
2022-09-10T01:24:05.685Z,99749.56
2022-09-10T01:26:45.508Z,99751.41
2022-09-10T01:29:13.912Z,99748.25
2022-09-10T01:31:53.318Z,99738.78
2022-09-10T01:34:29.813Z,99739.81
2022-09-10T01:37:07.974Z,99739.28
2022-09-10T01:39:37.309Z,99735.59
2022-09-10T01:42:05.324Z,99734.03
2022-09-10T01:44:47.497Z,99727.50
2022-09-10T01:47:29.175Z,99729.81
2022-09-10T01:50:05.016Z,99721.88
2022-09-10T01:52:42.312Z,99719.78
2022-09-10T01:55:21.959Z,99721.28
2022-09-10T01:57:53.036Z,99720.16
2022-09-10T02:00:22.031Z,99726.69
2022-09-10T02:02:52.324Z,99725.91
2022-09-10T02:05:21.016Z,99733.53
2022-09-10T02:07:55.188Z,99729.06
2022-09-10T02:10:23.729Z,99734.31
2022-09-10T02:12:50.995Z,99736.38
2022-09-10T02:15:37.983Z,99741.13
2022-09-10T02:18:32.743Z,99734.31
2022-09-10T02:21:02.857Z,99727.19
2022-09-10T02:23:49.853Z,99730.56
2022-09-10T02:26:17.018Z,99732.13
2022-09-10T02:28:44.404Z,99727.34
2022-09-10T02:31:12.880Z,99716.31
2022-09-10T02:33:40.076Z,99714.41
2022-09-10T02:36:07.373Z,99726.50
2022-09-10T02:38:34.492Z,99722.34
2022-09-10T02:41:01.832Z,99723.13
2022-09-10T02:43:28.928Z,99729.41
2022-09-10T02:45:58.793Z,99727.59
2022-09-10T02:48:31.094Z,99726.78
2022-09-10T02:50:58.670Z,99731.00
2022-09-10T02:53:27.780Z,99717.09
2022-09-10T02:55:59.103Z,99722.78
2022-09-10T02:58:25.938Z,99709.97
2022-09-10T03:00:53.701Z,99715.44
2022-09-10T03:03:20.518Z,99715.19
2022-09-10T03:05:47.924Z,99718.31
2022-09-10T03:08:14.989Z,99726.97
2022-09-10T03:10:45.394Z,99724.09
2022-09-10T03:13:12.703Z,99712.03
2022-09-10T03:15:42.058Z,99722.00
2022-09-10T03:18:09.343Z,99716.53
2022-09-10T03:20:36.498Z,99716.81
2022-09-10T03:23:03.729Z,99730.19
2022-09-10T03:25:30.602Z,99727.59
2022-09-10T03:27:57.869Z,99726.78
2022-09-10T03:30:26.558Z,99720.97
2022-09-10T03:32:54.754Z,99726.22
2022-09-10T03:35:22.509Z,99724.09
2022-09-10T03:37:49.665Z,99725.66
2022-09-10T03:40:17.099Z,99730.03
2022-09-10T03:42:44.095Z,99734.94
2022-09-10T03:45:12.111Z,99733.03
2022-09-10T03:47:39.595Z,99743.25
2022-09-10T03:50:07.275Z,99744.84
2022-09-10T03:52:35.850Z,99743.03
2022-09-10T03:55:03.376Z,99741.75
2022-09-10T03:57:30.980Z,99743.84
2022-09-10T03:59:59.124Z,99736.47
2022-09-10T04:02:25.939Z,99725.75
2022-09-10T04:04:52.739Z,99725.47
2022-09-10T04:07:21.315Z,99725.63
2022-09-10T04:09:49.973Z,99735.31
2022-09-10T04:12:17.412Z,99735.28
2022-09-10T04:14:46.659Z,99741.06
2022-09-10T04:17:14.881Z,99736.34
2022-09-10T04:19:42.946Z,99738.72
2022-09-10T04:22:11.002Z,99738.72
2022-09-10T04:24:38.861Z,99736.63
2022-09-10T04:27:06.447Z,99733.72
2022-09-10T04:29:33.640Z,99742.16
2022-09-10T04:32:01.904Z,99740.56
2022-09-10T04:34:31.274Z,99736.41
2022-09-10T04:36:58.651Z,99747.22
2022-09-10T04:39:25.392Z,99754.31
2022-09-10T04:41:52.167Z,99759.06
2022-09-10T04:44:20.264Z,99751.94
2022-09-10T04:46:47.957Z,99748.53
2022-09-10T04:49:14.955Z,99751.44
2022-09-10T04:51:48.108Z,99754.63
2022-09-10T04:54:16.740Z,99744.72
2022-09-10T04:56:47.475Z,99749.28
2022-09-10T04:59:14.492Z,99745.34
2022-09-10T05:01:43.611Z,99748.50
2022-09-10T05:04:10.676Z,99742.97
2022-09-10T05:06:38.582Z,99751.88
2022-09-10T05:09:08.665Z,99759.66
2022-09-10T05:11:36.797Z,99771.16
2022-09-10T05:14:04.475Z,99770.53
2022-09-10T05:16:32.472Z,99765.47
2022-09-10T05:18:59.861Z,99760.47
2022-09-10T05:21:29.229Z,99766.75
2022-09-10T05:23:56.307Z,99752.34
2022-09-10T05:27:36.474Z,99762.97
2022-09-10T05:30:06.285Z,99779.03
2022-09-10T05:32:35.509Z,99771.25
2022-09-10T05:35:05.428Z,99772.59
2022-09-10T05:37:37.250Z,99770.13
2022-09-10T05:40:06.530Z,99775.84
2022-09-10T05:42:33.769Z,99783.31
2022-09-10T05:45:00.536Z,99766.13
2022-09-10T05:47:28.347Z,99777.03
2022-09-10T05:49:56.470Z,99770.13
2022-09-10T05:52:26.350Z,99773.03
2022-09-10T05:54:56.549Z,99777.50
2022-09-10T05:57:23.351Z,99772.50
2022-09-10T05:59:50.797Z,99777.50
2022-09-10T06:02:23.747Z,99780.72
2022-09-10T06:04:52.735Z,99777.06
2022-09-10T06:07:20.610Z,99780.22
2022-09-10T06:09:47.427Z,99779.13
2022-09-10T06:12:26.496Z,99775.69
2022-09-10T06:14:54.200Z,99781.22
2022-09-10T06:17:21.908Z,99783.50
2022-09-10T06:19:51.646Z,99786.84
2022-09-10T06:22:19.269Z,99784.19
2022-09-10T06:24:50.590Z,99791.88
2022-09-10T06:27:23.292Z,99793.69
2022-09-10T06:29:51.598Z,99800.53
2022-09-10T06:32:19.254Z,99795.34
2022-09-10T06:34:47.320Z,99794.91
2022-09-10T06:37:14.594Z,99784.38
2022-09-10T06:39:41.660Z,99777.84
2022-09-10T06:42:08.550Z,99785.28
2022-09-10T06:44:55.026Z,99787.50
2022-09-10T06:48:32.326Z,99786.69
2022-09-10T06:50:31.022Z,99791.34
2022-09-10T06:52:58.825Z,99799.84
2022-09-10T06:55:25.738Z,99778.81
2022-09-10T06:57:52.876Z,99785.16
2022-09-10T07:00:20.314Z,99785.25
2022-09-10T07:02:51.920Z,99792.41
2022-09-10T07:05:19.221Z,99786.44
2022-09-10T07:07:46.456Z,99783.06
2022-09-10T07:10:14.955Z,99789.91
2022-09-10T07:12:42.355Z,99784.41
2022-09-10T07:15:09.735Z,99795.69
2022-09-10T07:17:37.631Z,99797.84
2022-09-10T07:20:06.404Z,99795.31
2022-09-10T07:22:43.852Z,99797.88
2022-09-10T07:25:13.244Z,99793.81
2022-09-10T07:27:54.238Z,99795.13
2022-09-10T07:30:22.402Z,99800.25
2022-09-10T07:32:51.243Z,99798.75
2022-09-10T07:35:23.023Z,99796.81
2022-09-10T07:37:50.549Z,99799.53
2022-09-10T07:40:19.956Z,99805.28
2022-09-10T07:42:47.261Z,99798.06
2022-09-10T07:45:16.152Z,99790.97
2022-09-10T07:47:44.677Z,99803.50
2022-09-10T07:50:13.020Z,99810.69
2022-09-10T07:52:40.968Z,99814.88
2022-09-10T07:55:08.097Z,99806.31
2022-09-10T07:57:37.950Z,99814.13
2022-09-10T08:00:07.327Z,99819.50
2022-09-10T08:02:43.053Z,99820.09
2022-09-10T08:05:15.022Z,99821.00
2022-09-10T08:07:42.960Z,99825.59
2022-09-10T08:10:10.633Z,99825.66
2022-09-10T08:12:40.159Z,99817.03
2022-09-10T08:15:08.451Z,99826.13
2022-09-10T08:17:36.867Z,99821.22
2022-09-10T08:20:07.346Z,99826.09
2022-09-10T08:22:34.841Z,99828.19
2022-09-10T08:25:02.267Z,99823.47
2022-09-10T08:27:34.517Z,99826.72
2022-09-10T08:30:04.533Z,99823.94
2022-09-10T08:32:31.776Z,99819.97
2022-09-10T08:34:58.904Z,99827.69
2022-09-10T08:37:27.705Z,99825.41
2022-09-10T08:39:54.868Z,99810.16
2022-09-10T08:42:50.618Z,99827.69
2022-09-10T08:45:21.063Z,99822.63
2022-09-10T08:47:53.896Z,99812.84
2022-09-10T08:50:31.597Z,99805.91
2022-09-10T08:53:03.653Z,99805.16
2022-09-10T08:55:32.663Z,99803.19
2022-09-10T08:58:03.975Z,99803.94
2022-09-10T09:00:34.212Z,99804.06
2022-09-10T09:03:10.622Z,99804.47
2022-09-10T09:05:59.602Z,99809.19
2022-09-10T09:08:48.419Z,99803.81
2022-09-10T09:11:22.671Z,99790.41
2022-09-10T09:13:59.453Z,99801.19
2022-09-10T09:16:50.815Z,99804.63
2022-09-10T09:19:29.862Z,99799.44
2022-09-10T09:22:01.579Z,99811.81
2022-09-10T09:24:35.006Z,99805.31
2022-09-10T09:27:09.922Z,99801.91
2022-09-10T09:29:48.448Z,99808.28
2022-09-10T09:32:17.792Z,99806.81
2022-09-10T09:34:55.372Z,99802.59
2022-09-10T09:37:29.866Z,99802.19
2022-09-10T09:40:06.171Z,99797.16
2022-09-10T09:42:38.023Z,99801.31
2022-09-10T09:45:17.260Z,99796.78
2022-09-10T09:47:45.868Z,99804.56
2022-09-10T09:50:13.745Z,99799.66
2022-09-10T09:52:41.267Z,99793.59
2022-09-10T09:55:16.787Z,99783.47
2022-09-10T09:57:44.191Z,99799.16
2022-09-10T10:00:30.055Z,99790.94
2022-09-10T10:03:04.080Z,99792.50
2022-09-10T10:05:34.684Z,99791.00
2022-09-10T10:08:01.687Z,99790.34
2022-09-10T10:10:28.663Z,99793.78
2022-09-10T10:12:56.068Z,99793.56
2022-09-10T10:15:43.129Z,99797.88
2022-09-10T10:18:22.640Z,99797.00
2022-09-10T10:21:08.943Z,99787.88
2022-09-10T10:23:36.860Z,99793.47
2022-09-10T10:26:17.117Z,99786.59
2022-09-10T10:28:47.092Z,99788.75
2022-09-10T10:31:14.466Z,99783.84
2022-09-10T10:33:49.532Z,99786.41
2022-09-10T10:36:26.308Z,99787.31
2022-09-10T10:39:01.747Z,99788.66
2022-09-10T10:41:41.794Z,99781.69
2022-09-10T10:44:25.306Z,99802.00
2022-09-10T10:47:11.612Z,99786.91
2022-09-10T10:49:44.169Z,99780.22
2022-09-10T10:52:24.606Z,99781.69
2022-09-10T10:55:09.825Z,99765.88
2022-09-10T10:58:01.718Z,99773.03
2022-09-10T11:00:30.058Z,99777.44
2022-09-10T11:03:16.078Z,99786.28
2022-09-10T11:05:56.195Z,99777.44
2022-09-10T11:08:29.883Z,99765.69
2022-09-10T11:11:18.399Z,99755.56
2022-09-10T11:14:04.240Z,99757.47
2022-09-10T11:16:40.423Z,99763.34
2022-09-10T11:19:14.091Z,99756.91
2022-09-10T11:21:44.038Z,99765.16
2022-09-10T11:24:17.119Z,99763.75
2022-09-10T11:26:51.146Z,99773.16
2022-09-10T11:29:21.527Z,99762.75
2022-09-10T11:31:52.151Z,99760.81
2022-09-10T11:34:28.181Z,99757.41
2022-09-10T11:36:58.557Z,99760.59
2022-09-10T11:39:31.583Z,99760.28
2022-09-10T11:41:59.407Z,99756.88
2022-09-10T11:44:51.362Z,99760.38
2022-09-10T11:47:22.217Z,99759.53
2022-09-10T11:49:54.772Z,99754.03
2022-09-10T11:52:23.165Z,99756.94
2022-09-10T11:54:50.280Z,99756.25
2022-09-10T11:57:35.708Z,99765.09
2022-09-10T12:00:12.010Z,99763.47
2022-09-10T12:02:57.690Z,99766.78
2022-09-10T12:05:30.868Z,99759.25
2022-09-10T12:08:17.629Z,99757.75
2022-09-10T12:11:04.709Z,99760.59
2022-09-10T12:13:34.406Z,99760.75
2022-09-10T12:16:05.629Z,99760.16
2022-09-10T12:18:42.883Z,99759.19
2022-09-10T12:21:19.928Z,99763.22
2022-09-10T12:23:47.394Z,99766.84
2022-09-10T12:26:19.746Z,99761.38
2022-09-10T12:28:49.676Z,99761.75
2022-09-10T12:31:17.725Z,99762.63
2022-09-10T12:33:44.572Z,99764.91
2022-09-10T12:36:13.731Z,99759.41
2022-09-10T12:38:49.028Z,99766.63
2022-09-10T12:41:25.023Z,99765.16
2022-09-10T12:43:53.516Z,99765.56
2022-09-10T12:46:22.849Z,99757.78
2022-09-10T12:48:56.093Z,99759.06
2022-09-10T12:51:46.326Z,99756.41
2022-09-10T12:54:13.133Z,99741.25
2022-09-10T12:56:43.228Z,99747.19
2022-09-10T12:59:42.604Z,99752.69
2022-09-10T13:02:20.604Z,99754.22
2022-09-10T13:04:53.876Z,99754.13
2022-09-10T13:07:25.254Z,99748.72
2022-09-10T13:10:00.330Z,99756.75
2022-09-10T13:12:27.598Z,99756.09
2022-09-10T13:14:57.577Z,99761.06
2022-09-10T13:17:59.682Z,99755.59
2022-09-10T13:20:26.712Z,99755.44
2022-09-10T13:22:53.567Z,99755.81
2022-09-10T13:25:43.838Z,99741.81
2022-09-10T13:28:29.167Z,99752.09
2022-09-10T13:31:05.183Z,99725.34
2022-09-10T13:33:34.249Z,99736.03
2022-09-10T13:36:16.278Z,99729.00
2022-09-10T13:39:02.642Z,99731.38
2022-09-10T13:41:33.005Z,99731.28
2022-09-10T13:44:21.123Z,99727.97
2022-09-10T13:46:51.122Z,99723.50
2022-09-10T13:49:32.846Z,99724.41
2022-09-10T13:52:00.913Z,99718.44
2022-09-10T13:54:31.459Z,99727.94
2022-09-10T13:57:02.312Z,99721.13
2022-09-10T13:59:31.268Z,99720.13
2022-09-10T14:02:01.104Z,99719.34
2022-09-10T14:04:27.936Z,99724.88
2022-09-10T14:06:57.802Z,99725.44
2022-09-10T14:09:25.831Z,99719.13
2022-09-10T14:11:52.980Z,99719.13
2022-09-10T14:14:27.277Z,99722.56
2022-09-10T14:17:07.764Z,99722.78
2022-09-10T14:20:05.354Z,99723.81
2022-09-10T14:22:37.681Z,99727.31
2022-09-10T14:25:05.480Z,99720.59
2022-09-10T14:27:33.490Z,99726.88
2022-09-10T14:30:21.644Z,99720.56
2022-09-10T14:32:49.074Z,99713.06
2022-09-10T14:35:34.870Z,99720.78
2022-09-10T14:38:06.766Z,99714.09
2022-09-10T14:40:37.460Z,99714.25
2022-09-10T14:43:27.326Z,99724.63
2022-09-10T14:45:54.178Z,99725.19
2022-09-10T14:48:38.778Z,99723.72
2022-09-10T14:51:12.043Z,99719.00
2022-09-10T14:53:40.431Z,99746.47
2022-09-10T14:56:26.347Z,99739.69
2022-09-10T14:58:59.940Z,99729.91
2022-09-10T15:01:26.795Z,99738.91
2022-09-10T15:03:53.742Z,99740.75
2022-09-10T15:06:26.025Z,99751.25
2022-09-10T15:08:56.189Z,99747.31
2022-09-10T15:11:27.814Z,99757.97
2022-09-10T15:13:56.060Z,99758.75
2022-09-10T15:16:23.524Z,99753.50
2022-09-10T15:18:50.361Z,99753.91
2022-09-10T15:21:17.137Z,99765.06
2022-09-10T15:23:45.230Z,99767.00
2022-09-10T15:26:14.876Z,99773.69
2022-09-10T15:28:41.638Z,99767.41
2022-09-10T15:31:09.111Z,99777.47
2022-09-10T15:33:36.259Z,99785.41
2022-09-10T15:36:03.695Z,99786.00
2022-09-10T15:38:31.534Z,99793.44
2022-09-10T15:41:07.609Z,99790.50
2022-09-10T15:43:36.478Z,99796.53
2022-09-10T15:46:03.320Z,99798.25
2022-09-10T15:48:30.785Z,99805.47
2022-09-10T15:51:00.419Z,99795.50
2022-09-10T15:53:27.173Z,99802.63
2022-09-10T15:55:54.091Z,99796.34
2022-09-10T15:58:21.234Z,99806.34
2022-09-10T16:00:48.015Z,99796.88
2022-09-10T16:03:14.883Z,99800.06
2022-09-10T16:05:41.975Z,99801.38
2022-09-10T16:08:08.897Z,99800.06
2022-09-10T16:10:38.622Z,99793.94
2022-09-10T16:13:08.130Z,99794.50
2022-09-10T16:15:36.081Z,99796.88
2022-09-10T16:18:03.054Z,99798.97
2022-09-10T16:20:30.117Z,99790.56
2022-09-10T16:22:58.369Z,99804.06
2022-09-10T16:25:25.664Z,99791.19
2022-09-10T16:27:54.967Z,99794.09
2022-09-10T16:30:22.771Z,99785.97
2022-09-10T16:32:49.533Z,99789.69
2022-09-10T16:35:16.781Z,99780.22
2022-09-10T16:37:45.315Z,99773.38
2022-09-10T16:40:16.069Z,99771.56
2022-09-10T16:42:43.465Z,99760.22
2022-09-10T16:45:10.558Z,99765.50
2022-09-10T16:47:37.945Z,99758.09
2022-09-10T16:50:05.818Z,99763.66
2022-09-10T16:52:34.180Z,99751.31
2022-09-10T16:55:02.574Z,99755.50
2022-09-10T16:57:30.348Z,99756.53
2022-09-10T16:59:57.154Z,99756.00
2022-09-10T17:02:24.547Z,99750.25
2022-09-10T17:04:52.597Z,99756.03
2022-09-10T17:07:19.348Z,99753.09
2022-09-10T17:09:46.393Z,99758.66
2022-09-10T17:12:13.439Z,99756.53
2022-09-10T17:14:40.526Z,99761.50
2022-09-10T17:17:10.632Z,99752.06
2022-09-10T17:19:38.017Z,99754.69
2022-09-10T17:22:05.042Z,99755.47
2022-09-10T17:24:32.059Z,99759.91
2022-09-10T17:26:59.731Z,99764.38
2022-09-10T17:29:26.598Z,99768.03
2022-09-10T17:31:55.399Z,99773.78
2022-09-10T17:34:24.541Z,99778.50
2022-09-10T17:36:51.690Z,99782.41
2022-09-10T17:39:18.912Z,99780.06
2022-09-10T17:41:46.325Z,99782.72
2022-09-10T17:44:13.718Z,99778.50
2022-09-10T17:46:42.834Z,99790.63
2022-09-10T17:49:12.472Z,99798.50
2022-09-10T17:51:39.236Z,99792.22
2022-09-10T17:54:06.235Z,99800.31
2022-09-10T17:56:33.422Z,99802.69
2022-09-10T17:59:01.928Z,99804.03
2022-09-10T18:01:33.612Z,99805.84
2022-09-10T18:04:00.809Z,99811.09
2022-09-10T18:06:29.284Z,99811.09
2022-09-10T18:09:00.675Z,99812.69
2022-09-10T18:11:29.551Z,99805.09
2022-09-10T18:13:57.273Z,99807.47
2022-09-10T18:16:25.441Z,99811.16
2022-09-10T18:18:59.500Z,99812.44
2022-09-10T18:21:32.168Z,99812.16
2022-09-10T18:24:00.466Z,99824.25
2022-09-10T18:26:28.226Z,99819.47
2022-09-10T18:29:02.835Z,99823.69
2022-09-10T18:31:32.555Z,99821.81
2022-09-10T18:34:00.375Z,99823.63
2022-09-10T18:36:28.807Z,99826.19
2022-09-10T18:38:56.102Z,99822.28
2022-09-10T18:41:27.331Z,99817.22
2022-09-10T18:43:56.147Z,99826.91
2022-09-10T18:46:23.859Z,99823.44
2022-09-10T18:48:50.932Z,99835.03
2022-09-10T18:51:19.446Z,99828.19
2022-09-10T18:53:46.849Z,99834.22
2022-09-10T18:56:17.277Z,99828.69
2022-09-10T18:58:50.678Z,99830.00
2022-09-10T19:01:18.207Z,99840.69
2022-09-10T19:03:45.488Z,99830.72
2022-09-10T19:06:16.885Z,99834.38
2022-09-10T19:08:49.147Z,99842.97
2022-09-10T19:11:17.643Z,99843.75
2022-09-10T19:13:48.667Z,99837.13
2022-09-10T19:16:15.797Z,99840.97
2022-09-10T19:18:43.957Z,99846.75
2022-09-10T19:21:11.421Z,99846.22
2022-09-10T19:23:39.736Z,99855.66
2022-09-10T19:26:08.337Z,99854.34
2022-09-10T19:28:36.009Z,99859.00
2022-09-10T19:31:05.035Z,99856.13
2022-09-10T19:33:32.646Z,99852.91
2022-09-10T19:36:04.315Z,99852.34
2022-09-10T19:38:37.886Z,99859.66
2022-09-10T19:41:09.574Z,99855.19
2022-09-10T19:43:36.815Z,99859.88
2022-09-10T19:46:04.880Z,99858.81
2022-09-10T19:48:32.699Z,99872.16
2022-09-10T19:51:01.200Z,99864.00
2022-09-10T19:53:28.475Z,99865.03
2022-09-10T19:55:55.511Z,99863.16
2022-09-10T19:58:22.269Z,99859.44
2022-09-10T20:00:49.063Z,99856.75
2022-09-10T20:03:16.221Z,99853.56
2022-09-10T20:05:43.138Z,99858.28
2022-09-10T20:08:09.909Z,99858.53
2022-09-10T20:10:38.187Z,99857.94
2022-09-10T20:13:05.815Z,99848.28
2022-09-10T20:15:32.848Z,99853.06
2022-09-10T20:18:00.021Z,99858.03
2022-09-10T20:20:26.788Z,99865.66
2022-09-10T20:23:00.312Z,99859.09
2022-09-10T20:25:28.763Z,99863.63
2022-09-10T20:27:55.515Z,99862.84
2022-09-10T20:30:22.299Z,99857.28
2022-09-10T20:32:49.546Z,99857.00
2022-09-10T20:35:16.573Z,99853.81
2022-09-10T20:37:43.547Z,99855.41
2022-09-10T20:40:10.733Z,99848.84
2022-09-10T20:42:39.327Z,99853.53
2022-09-10T20:45:06.444Z,99849.88
2022-09-10T20:47:37.379Z,99842.81
2022-09-10T20:50:04.286Z,99841.44
2022-09-10T20:52:31.218Z,99834.88
2022-09-10T20:54:58.415Z,99829.88
2022-09-10T20:57:25.192Z,99835.63
2022-09-10T20:59:52.238Z,99826.66
2022-09-10T21:02:19.378Z,99822.94
2022-09-10T21:04:46.229Z,99821.91
2022-09-10T21:07:13.028Z,99819.78
2022-09-10T21:09:40.150Z,99817.66
2022-09-10T21:12:07.015Z,99817.88
2022-09-10T21:14:33.755Z,99815.50
2022-09-10T21:17:01.246Z,99817.09
2022-09-10T21:19:28.217Z,99817.09
2022-09-10T21:21:55.031Z,99819.91
2022-09-10T21:24:22.691Z,99808.06
2022-09-10T21:26:50.025Z,99812.28
2022-09-10T21:29:18.065Z,99807.28
2022-09-10T21:31:45.700Z,99814.91
2022-09-10T21:34:12.703Z,99806.34
2022-09-10T21:36:41.259Z,99810.81
2022-09-10T21:39:11.616Z,99814.78
2022-09-10T21:41:43.017Z,99818.75
2022-09-10T21:44:14.657Z,99814.31
2022-09-10T21:46:42.204Z,99809.31
2022-09-10T21:49:09.178Z,99812.72
2022-09-10T21:51:36.262Z,99813.75
2022-09-10T21:54:04.689Z,99812.16
2022-09-10T21:56:31.743Z,99819.25
2022-09-10T21:58:59.648Z,99810.00
2022-09-10T22:01:27.842Z,99815.25
2022-09-10T22:03:56.440Z,99821.78
2022-09-10T22:06:24.745Z,99821.00
2022-09-10T22:08:52.700Z,99820.19
2022-09-10T22:11:24.041Z,99821.00
2022-09-10T22:13:52.901Z,99822.97
2022-09-10T22:16:20.874Z,99816.16
2022-09-10T22:18:47.741Z,99810.38
2022-09-10T22:21:15.117Z,99811.97
2022-09-10T22:23:41.905Z,99818.78
2022-09-10T22:26:10.552Z,99812.28
2022-09-10T22:28:39.100Z,99811.97
2022-09-10T22:31:16.099Z,99816.41
2022-09-10T22:33:44.192Z,99820.88
2022-09-10T22:36:12.156Z,99820.31
2022-09-10T22:38:39.142Z,99825.00
2022-09-10T22:41:07.359Z,99829.97
2022-09-10T22:43:35.479Z,99833.41
2022-09-10T22:46:02.337Z,99826.56
2022-09-10T22:48:29.674Z,99828.66
2022-09-10T22:50:56.407Z,99830.94
2022-09-10T22:53:23.204Z,99825.16
2022-09-10T22:55:50.940Z,99826.75
2022-09-10T22:58:18.321Z,99834.59
2022-09-10T23:00:45.886Z,99838.00
2022-09-10T23:03:13.007Z,99838.25
2022-09-10T23:05:39.786Z,99833.25
2022-09-10T23:08:07.070Z,99830.09
2022-09-10T23:10:34.345Z,99837.69
2022-09-10T23:13:01.141Z,99845.56
2022-09-10T23:15:30.177Z,99843.72
2022-09-10T23:17:57.955Z,99836.91
2022-09-10T23:20:25.098Z,99842.69
2022-09-10T23:22:51.891Z,99846.09
2022-09-10T23:25:19.070Z,99845.09
2022-09-10T23:27:48.399Z,99844.28
2022-09-10T23:30:16.140Z,99841.41
2022-09-10T23:32:43.892Z,99839.56
2022-09-10T23:35:10.688Z,99848.47
2022-09-10T23:37:38.386Z,99847.44
2022-09-10T23:40:06.719Z,99846.41
2022-09-10T23:42:33.597Z,99845.16
2022-09-10T23:45:00.335Z,99850.63
2022-09-10T23:47:27.567Z,99848.81
2022-09-10T23:49:54.367Z,99854.84
2022-09-10T23:52:25.489Z,99845.97
2022-09-10T23:54:52.614Z,99852.75
2022-09-10T23:57:19.381Z,99848.59
2022-09-10T23:59:46.227Z,99849.09
